KTCC/TCC METAR and TAF weather

Enter ICAO airport designator
Station Type Date Time Source
KTCC METAR 2021/07/29 18:53 UTC NOAA

KTCC 291853Z AUTO 19013G18KT 10SM FEW065 33/13 A3019 RMK AO2 SLP151 T03330133


Station Type Date Time Source
KTCC Decoded METAR 2021/07/29 18:53 UTC NOAA

TUCUMCARI MUNICIPAL AIRPORT , NM, United States (KTCC) 35-11N 103-36W 1235M
Jul 29, 2021 - 02:53 PM EDT / 2021.07.29 1853 UTC
Wind: from the S (190 degrees) at 15 MPH (13 KT) gusting to 21 MPH (18 KT):0
Visibility: 10 mile(s):0
Sky conditions: mostly clear
Temperature: 91.9 F (33.3 C)
Dew Point: 55.9 F (13.3 C)
Relative Humidity: 29%
Pressure (altimeter): 30.19 in. Hg (1022 hPa)
ob: KTCC 291853Z AUTO 19013G18KT 10SM FEW065 33/13 A3019 RMK AO2 SLP151 T03330133
cycle: 19

Station Type Date Time Source
KTCC TAF 2021/07/29 18:42 UTC NOAA

TAF KTCC 291739Z 2918/3018 18011G19KT P6SM FEW090
FM300200 15008KT P6SM FEW100
FM300600 VRB04KT P6SM SCT250

Example: see airport list